Wetterdaten: aktuell Montag, 22.07.2024 13:35
Datum Zeit Temp. A. Feuchte A. Luftdruck Regen Wind Richtung Richtung Taupunkt Windchill Windben
22.07.2024 13:35 20,0 C 70 % 1013,7 hPa 0,0 l/m 4,9 km/h (1 Bft) W 273 14,4 C 20,0 C 16,1 km/h (3 Bft)
22.07.2024 13:30 20,2 C 73 % 1013,7 hPa 0,0 l/m 3,1 km/h (1 Bft) O-SO 103 15,2 C 20,2 C 6,4 km/h (2 Bft)
22.07.2024 13:25 19,5 C 74 % 1013,6 hPa 0,0 l/m 2,5 km/h (1 Bft) W-SW 248 14,7 C 19,5 C 6,4 km/h (2 Bft)
22.07.2024 13:20 19,1 C 73 % 1013,8 hPa 0,0 l/m 3,4 km/h (1 Bft) S-SW 209 14,1 C 19,1 C 9,7 km/h (2 Bft)
22.07.2024 13:15 19,0 C 73 % 1013,8 hPa 0,0 l/m 5,5 km/h (1 Bft) W-SW 251 14,0 C 19,0 C 17,7 km/h (3 Bft)
22.07.2024 13:10 19,3 C 73 % 1013,7 hPa 0,0 l/m 4,8 km/h (1 Bft) NW 311 14,3 C 19,3 C 12,9 km/h (3 Bft)
22.07.2024 13:05 19,4 C 75 % 1013,7 hPa 0,0 l/m 4,5 km/h (1 Bft) N-NW 338 14,8 C 19,4 C 11,3 km/h (2 Bft)
22.07.2024 13:00 19,6 C 77 % 1013,7 hPa 0,0 l/m 3,6 km/h (1 Bft) NO 48 15,5 C 19,6 C 14,5 km/h (3 Bft)
22.07.2024 12:55 19,4 C 75 % 1013,6 hPa 0,0 l/m 3,8 km/h (1 Bft) S-SW 206 14,8 C 19,4 C 14,5 km/h (3 Bft)
22.07.2024 12:50 19,3 C 73 % 1013,6 hPa 0,0 l/m 5,0 km/h (1 Bft) SW 215 14,3 C 19,3 C 12,9 km/h (3 Bft)
22.07.2024 12:45 19,4 C 74 % 1013,6 hPa 0,0 l/m 4,4 km/h (1 Bft) W-NW 295 14,6 C 19,4 C 11,3 km/h (2 Bft)
22.07.2024 12:40 19,5 C 75 % 1013,5 hPa 0,0 l/m 5,5 km/h (1 Bft) W 265 14,9 C 19,5 C 12,9 km/h (3 Bft)
22.07.2024 12:35 19,4 C 76 % 1013,6 hPa 0,0 l/m 4,2 km/h (1 Bft) W-SW 242 15,1 C 19,4 C 14,5 km/h (3 Bft)
22.07.2024 12:30 19,0 C 76 % 1013,6 hPa 0,0 l/m 5,6 km/h (1 Bft) N 355 14,7 C 19,0 C 12,9 km/h (3 Bft)
22.07.2024 12:25 19,3 C 75 % 1013,5 hPa 0,0 l/m 5,6 km/h (1 Bft) W-SW 258 14,8 C 19,3 C 17,7 km/h (3 Bft)
22.07.2024 12:20 19,4 C 73 % 1013,4 hPa 0,0 l/m 6,0 km/h (2 Bft) O-NO 68 14,4 C 19,4 C 17,7 km/h (3 Bft)
22.07.2024 12:15 19,6 C 72 % 1013,4 hPa 0,0 l/m 4,8 km/h (1 Bft) W 263 14,4 C 19,6 C 11,3 km/h (2 Bft)
22.07.2024 12:10 19,6 C 74 % 1013,3 hPa 0,0 l/m 5,5 km/h (1 Bft) NO 40 14,8 C 19,6 C 16,1 km/h (3 Bft)
22.07.2024 12:05 19,4 C 75 % 1013,4 hPa 0,0 l/m 3,5 km/h (1 Bft) O-SO 107 14,8 C 19,4 C 12,9 km/h (3 Bft)
22.07.2024 12:00 19,2 C 77 % 1013,4 hPa 0,0 l/m 4,1 km/h (1 Bft) S-SO 166 15,1 C 19,2 C 16,1 km/h (3 Bft)
22.07.2024 11:55 18,9 C 76 % 1013,3 hPa 0,0 l/m 4,4 km/h (1 Bft) N 350 14,6 C 18,9 C 11,3 km/h (2 Bft)
22.07.2024 11:50 18,8 C 78 % 1013,4 hPa 0,0 l/m 5,0 km/h (1 Bft) W-NW 289 14,9 C 18,8 C 14,5 km/h (3 Bft)
22.07.2024 11:45 18,6 C 78 % 1013,3 hPa 0,0 l/m 4,5 km/h (1 Bft) O-NO 78 14,7 C 18,6 C 17,7 km/h (3 Bft)
22.07.2024 11:40 18,4 C 78 % 1013,3 hPa 0,0 l/m 5,3 km/h (1 Bft) N-NO 26 14,5 C 18,4 C 19,3 km/h (3 Bft)
22.07.2024 11:35 18,6 C 78 % 1013,3 hPa 0,0 l/m 4,5 km/h (1 Bft) NW 320 14,7 C 18,6 C 12,9 km/h (3 Bft)
22.07.2024 11:30 18,6 C 79 % 1013,2 hPa 0,0 l/m 5,5 km/h (1 Bft) W-NW 298 14,9 C 18,6 C 19,3 km/h (3 Bft)
22.07.2024 11:25 18,4 C 78 % 1013,2 hPa 0,0 l/m 5,0 km/h (1 Bft) N-NO 15 14,5 C 18,4 C 12,9 km/h (3 Bft)
22.07.2024 11:20 18,2 C 80 % 1013,1 hPa 0,0 l/m 5,6 km/h (1 Bft) W-NW 288 14,7 C 18,2 C 19,3 km/h (3 Bft)
22.07.2024 11:15 18,1 C 80 % 1013,2 hPa 0,0 l/m 5,7 km/h (1 Bft) W-NW 303 14,6 C 18,1 C 17,7 km/h (3 Bft)
22.07.2024 11:10 17,9 C 81 % 1013,1 hPa 0,0 l/m 5,3 km/h (1 Bft) S 188 14,6 C 17,9 C 17,7 km/h (3 Bft)
22.07.2024 11:05 17,8 C 83 % 1012,9 hPa 0,0 l/m 3,7 km/h (1 Bft) NW 314 14,9 C 17,8 C 12,9 km/h (3 Bft)
22.07.2024 11:00 17,8 C 83 % 1012,9 hPa 0,0 l/m 3,9 km/h (1 Bft) N-NO 32 14,9 C 17,8 C 16,1 km/h (3 Bft)
22.07.2024 10:55 17,8 C 84 % 1012,8 hPa 0,0 l/m 5,2 km/h (1 Bft) SW 233 15,1 C 17,8 C 19,3 km/h (3 Bft)
22.07.2024 10:50 17,8 C 85 % 1012,8 hPa 0,0 l/m 4,8 km/h (1 Bft) W 267 15,2 C 17,8 C 17,7 km/h (3 Bft)
22.07.2024 10:45 17,7 C 86 % 1012,7 hPa 0,0 l/m 3,0 km/h (1 Bft) W-SW 242 15,3 C 17,7 C 6,4 km/h (2 Bft)
22.07.2024 10:40 17,6 C 88 % 1012,7 hPa 0,0 l/m 2,3 km/h (1 Bft) NW 306 15,6 C 17,6 C 6,4 km/h (2 Bft)
22.07.2024 10:35 17,3 C 88 % 1012,7 hPa 0,0 l/m 4,0 km/h (1 Bft) S-SO 148 15,3 C 17,3 C 9,7 km/h (2 Bft)
22.07.2024 10:30 17,4 C 89 % 1012,7 hPa 0,0 l/m 3,7 km/h (1 Bft) NO 49 15,6 C 17,4 C 11,3 km/h (2 Bft)
22.07.2024 10:25 17,6 C 89 % 1012,6 hPa 0,0 l/m 3,8 km/h (1 Bft) NW 322 15,8 C 17,6 C 12,9 km/h (3 Bft)
22.07.2024 10:20 17,6 C 88 % 1012,5 hPa 0,0 l/m 5,0 km/h (1 Bft) NW 316 15,6 C 17,6 C 16,1 km/h (3 Bft)
22.07.2024 10:15 17,7 C 88 % 1012,4 hPa 0,0 l/m 4,1 km/h (1 Bft) W 275 15,7 C 17,7 C 22,5 km/h (4 Bft)
22.07.2024 10:10 17,6 C 88 % 1012,4 hPa 0,0 l/m 4,3 km/h (1 Bft) O-NO 67 15,6 C 17,6 C 11,3 km/h (2 Bft)
22.07.2024 10:05 17,7 C 89 % 1012,3 hPa 0,0 l/m 4,2 km/h (1 Bft) N-NO 16 15,9 C 17,7 C 9,7 km/h (2 Bft)
22.07.2024 10:00 17,5 C 90 % 1012,3 hPa 0,0 l/m 2,9 km/h (1 Bft) NW 315 15,8 C 17,5 C 8,0 km/h (2 Bft)
22.07.2024 09:55 17,3 C 91 % 1012,3 hPa 0,0 l/m 3,4 km/h (1 Bft) SW 229 15,8 C 17,3 C 11,3 km/h (2 Bft)
22.07.2024 09:50 17,2 C 92 % 1012,3 hPa 0,0 l/m 2,2 km/h (1 Bft) N-NW 327 15,9 C 17,2 C 6,4 km/h (2 Bft)
22.07.2024 09:45 17,1 C 92 % 1012,2 hPa 0,0 l/m 1,7 km/h (1 Bft) NO 51 15,8 C 17,1 C 6,4 km/h (2 Bft)
22.07.2024 09:40 17,1 C 92 % 1012,2 hPa 0,0 l/m 2,4 km/h (1 Bft) N-NW 334 15,8 C 17,1 C 8,0 km/h (2 Bft)
22.07.2024 09:35 16,9 C 93 % 1012,2 hPa 0,0 l/m 2,6 km/h (1 Bft) NW 313 15,8 C 16,9 C 6,4 km/h (2 Bft)
22.07.2024 09:30 16,9 C 93 % 1012,1 hPa 0,0 l/m 3,0 km/h (1 Bft) N-NO 33 15,8 C 16,9 C 6,4 km/h (2 Bft)
22.07.2024 09:25 16,8 C 93 % 1012,1 hPa 0,0 l/m 2,6 km/h (1 Bft) N 355 15,7 C 16,8 C 8,0 km/h (2 Bft)
22.07.2024 09:20 16,8 C 93 % 1012,0 hPa 0,0 l/m 2,3 km/h (1 Bft) S 181 15,7 C 16,8 C 6,4 km/h (2 Bft)
22.07.2024 09:15 16,7 C 94 % 1012,0 hPa 0,0 l/m 2,7 km/h (1 Bft) N 5 15,7 C 16,7 C 6,4 km/h (2 Bft)
22.07.2024 09:10 16,7 C 94 % 1011,9 hPa 0,0 l/m 3,1 km/h (1 Bft) O 98 15,7 C 16,7 C 11,3 km/h (2 Bft)
22.07.2024 09:05 16,6 C 95 % 1012,0 hPa 0,0 l/m 2,1 km/h (1 Bft) W 265 15,8 C 16,6 C 6,4 km/h (2 Bft)
22.07.2024 09:00 16,6 C 94 % 1012,0 hPa 0,0 l/m 2,3 km/h (1 Bft) S 171 15,6 C 16,6 C 6,4 km/h (2 Bft)
22.07.2024 08:55 16,6 C 94 % 1011,9 hPa 0,0 l/m 3,0 km/h (1 Bft) NO 53 15,6 C 16,6 C 12,9 km/h (3 Bft)
22.07.2024 08:50 16,6 C 94 % 1011,9 hPa 0,0 l/m 3,0 km/h (1 Bft) NO 37 15,6 C 16,6 C 14,5 km/h (3 Bft)
22.07.2024 08:45 16,6 C 94 % 1011,9 hPa 0,0 l/m 3,4 km/h (1 Bft) NW 309 15,6 C 16,6 C 9,7 km/h (2 Bft)
22.07.2024 08:40 16,6 C 94 % 1011,8 hPa 0,0 l/m 2,5 km/h (1 Bft) O-NO 57 15,6 C 16,6 C 6,4 km/h (2 Bft)
22.07.2024 08:35 16,6 C 94 % 1011,9 hPa 0,0 l/m 3,7 km/h (1 Bft) NW 321 15,6 C 16,6 C 20,9 km/h (4 Bft)
22.07.2024 08:30 16,6 C 94 % 1011,9 hPa 0,0 l/m 3,5 km/h (1 Bft) O-NO 69 15,6 C 16,6 C 11,3 km/h (2 Bft)
22.07.2024 08:25 16,5 C 94 % 1011,9 hPa 0,0 l/m 3,0 km/h (1 Bft) N-NO 23 15,5 C 16,5 C 6,4 km/h (2 Bft)
22.07.2024 08:20 16,5 C 94 % 1011,9 hPa 0,0 l/m 1,6 km/h (1 Bft) N 350 15,5 C 16,5 C 6,4 km/h (2 Bft)
22.07.2024 08:15 16,6 C 94 % 1011,9 hPa 0,0 l/m 2,8 km/h (1 Bft) O 93 15,6 C 16,6 C 6,4 km/h (2 Bft)
22.07.2024 08:10 16,6 C 94 % 1011,8 hPa 0,0 l/m 2,3 km/h (1 Bft) O 90 15,6 C 16,6 C 4,8 km/h (1 Bft)
22.07.2024 08:05 16,6 C 94 % 1011,7 hPa 0,0 l/m 1,7 km/h (1 Bft) NO 40 15,6 C 16,6 C 8,0 km/h (2 Bft)
22.07.2024 08:00 16,6 C 94 % 1011,8 hPa 0,0 l/m 2,6 km/h (1 Bft) O-NO 75 15,6 C 16,6 C 9,7 km/h (2 Bft)
22.07.2024 07:56 16,6 C 94 % 1011,7 hPa 0,0 l/m 2,6 km/h (1 Bft) N 355 15,6 C 16,6 C 12,9 km/h (3 Bft)
22.07.2024 07:50 16,6 C 94 % 1011,7 hPa 0,0 l/m 2,4 km/h (1 Bft) N-NO 32 15,6 C 16,6 C 6,4 km/h (2 Bft)
22.07.2024 07:45 16,6 C 94 % 1011,7 hPa 0,0 l/m 3,8 km/h (1 Bft) O-NO 57 15,6 C 16,6 C 17,7 km/h (3 Bft)
22.07.2024 07:40 16,6 C 94 % 1011,6 hPa 0,0 l/m 2,1 km/h (1 Bft) S-SO 159 15,6 C 16,6 C 8,0 km/h (2 Bft)
22.07.2024 07:35 16,7 C 93 % 1011,5 hPa 0,0 l/m 3,9 km/h (1 Bft) N-NO 31 15,6 C 16,7 C 9,7 km/h (2 Bft)
22.07.2024 07:30 16,7 C 93 % 1011,6 hPa 0,0 l/m 3,5 km/h (1 Bft) N-NW 342 15,6 C 16,7 C 6,4 km/h (2 Bft)
22.07.2024 07:25 16,8 C 93 % 1011,5 hPa 0,0 l/m 3,0 km/h (1 Bft) O-SO 119 15,7 C 16,8 C 8,0 km/h (2 Bft)
22.07.2024 07:20 16,8 C 93 % 1011,4 hPa 0,0 l/m 3,3 km/h (1 Bft) W 278 15,7 C 16,8 C 9,7 km/h (2 Bft)
22.07.2024 07:15 16,8 C 92 % 1011,4 hPa 0,0 l/m 2,0 km/h (1 Bft) N-NW 340 15,5 C 16,8 C 6,4 km/h (2 Bft)
22.07.2024 07:10 16,9 C 92 % 1011,3 hPa 0,0 l/m 0,5 km/h (0 Bft) O-NO 65 15,6 C 16,9 C 1,6 km/h (1 Bft)
22.07.2024 07:09 16,9 C 92 % 1011,3 hPa 0,0 l/m 2,2 km/h (1 Bft) O-NO 65 15,6 C 16,9 C 6,4 km/h (2 Bft)
22.07.2024 07:00 17,0 C 92 % 1011,3 hPa 0,0 l/m 2,5 km/h (1 Bft) NO 39 15,7 C 17,0 C 8,0 km/h (2 Bft)
22.07.2024 06:58 17,0 C 92 % 1011,3 hPa 0,0 l/m 2,0 km/h (1 Bft) NW 319 15,7 C 17,0 C 8,0 km/h (2 Bft)
22.07.2024 06:50 17,1 C 91 % 1011,2 hPa 0,0 l/m 4,3 km/h (1 Bft) N-NW 327 15,6 C 17,1 C 12,9 km/h (3 Bft)
22.07.2024 06:47 17,1 C 91 % 1011,1 hPa 0,0 l/m 3,9 km/h (1 Bft) W-SW 242 15,6 C 17,1 C 12,9 km/h (3 Bft)
22.07.2024 06:40 17,3 C 91 % 1011,1 hPa 0,0 l/m 3,2 km/h (1 Bft) S-SW 207 15,8 C 17,3 C 8,0 km/h (2 Bft)
22.07.2024 06:36 17,3 C 91 % 1011,0 hPa 0,0 l/m 4,7 km/h (1 Bft) W-SW 239 15,8 C 17,3 C 17,7 km/h (3 Bft)
22.07.2024 06:30 17,5 C 90 % 1010,9 hPa 0,0 l/m 5,2 km/h (1 Bft) NO 52 15,8 C 17,5 C 12,9 km/h (3 Bft)
22.07.2024 06:25 17,6 C 90 % 1010,9 hPa 0,0 l/m 2,9 km/h (1 Bft) NO 46 15,9 C 17,6 C 8,0 km/h (2 Bft)
22.07.2024 06:20 17,7 C 90 % 1010,9 hPa 0,0 l/m 4,6 km/h (1 Bft) N-NO 17 16,0 C 17,7 C 14,5 km/h (3 Bft)
22.07.2024 06:15 17,7 C 90 % 1010,8 hPa 0,0 l/m 2,8 km/h (1 Bft) W-SW 257 16,0 C 17,7 C 11,3 km/h (2 Bft)
22.07.2024 06:10 17,7 C 89 % 1010,8 hPa 0,0 l/m 2,8 km/h (1 Bft) W-NW 290 15,9 C 17,7 C 8,0 km/h (2 Bft)
22.07.2024 06:05 17,7 C 89 % 1010,7 hPa 0,0 l/m 4,1 km/h (1 Bft) N-NO 27 15,9 C 17,7 C 9,7 km/h (2 Bft)
22.07.2024 06:00 17,8 C 88 % 1010,8 hPa 0,0 l/m 3,1 km/h (1 Bft) W 273 15,8 C 17,8 C 12,9 km/h (3 Bft)
22.07.2024 05:55 17,8 C 88 % 1010,7 hPa 0,0 l/m 4,0 km/h (1 Bft) W 280 15,8 C 17,8 C 12,9 km/h (3 Bft)
22.07.2024 05:50 17,9 C 88 % 1010,6 hPa 0,0 l/m 3,7 km/h (1 Bft) W-SW 244 15,9 C 17,9 C 12,9 km/h (3 Bft)
22.07.2024 05:45 17,9 C 87 % 1010,6 hPa 0,0 l/m 3,1 km/h (1 Bft) S-SW 192 15,7 C 17,9 C 14,5 km/h (3 Bft)
22.07.2024 05:40 18,1 C 86 % 1010,6 hPa 0,0 l/m 2,5 km/h (1 Bft) S-SW 205 15,7 C 18,1 C 12,9 km/h (3 Bft)
22.07.2024 05:35 18,2 C 86 % 1010,5 hPa 0,0 l/m 4,5 km/h (1 Bft) W 275 15,8 C 18,2 C 14,5 km/h (3 Bft)
22.07.2024 05:30 18,2 C 86 % 1010,5 hPa 0,0 l/m 2,1 km/h (1 Bft) S-SO 161 15,8 C 18,2 C 4,8 km/h (1 Bft)
22.07.2024 05:25 18,2 C 85 % 1010,5 hPa 0,0 l/m 1,7 km/h (1 Bft) W-NW 294 15,6 C 18,2 C 6,4 km/h (2 Bft)
22.07.2024 05:20 18,2 C 85 % 1010,4 hPa 0,0 l/m 1,2 km/h (1 Bft) N 360 15,6 C 18,2 C 3,2 km/h (1 Bft)
_ Min-Zeit 07:50 15:15 16:50 - 19:55 - - 15:15 08:20 19:55
Minimum _ 16,5 C 45 % 1008,0 hPa - 0,0 km/h (0 Bft) - - 13,4 C 16,5 C 0,0 km/h (0 Bft)
_ Max-Zeit 16:15 09:05 13:15 14:00 17:50 - - 22:35 16:15 10:15
Maximum _ 26,9 C 95 % 1013,8 hPa 0,0 l/m 6,8 km/h
W (2 Bft)
- - 16,8 C 26,8 C 22,5 km/h
NW (4 Bft)
Durchschnitt _ 20,6 C 74 % 1010,1 hPa #0,0 l/m 2,6 km/h (1 Bft) N-NO - 15,3 C 20,6 C 7,8 km/h (2 Bft)